Terminal Aerodrome Forecast
Issued by NWS

Home | Current Version | Previous Version | Text Only | Print | Product List | Glossary On
Versions: 1 2 3 4 5 6 7 8 9 10 11 12 13 14 15 16 17
000
FTUS41 KBOX 272320
TAFHYA
TAF
KHYA 272320Z 2800/2824 19006KT P6SM OVC004
     FM280200 18005KT 3SM BR OVC004
     FM280400 19005KT 1/4SM FG OVC002
     FM281100 20008KT 1/2SM FG VCSH OVC004
     FM281400 21010KT 2SM BR VCSH OVC010
     FM281600 21011KT P6SM OVC020
     FM282000 22012KT P6SM SCT050=

USA.gov is the U.S. government's official web portal to all federal, state and local government web resources and services.